createdAt,value
2022-08-23T00:00:13.409Z,5.50
2022-08-23T00:02:45.023Z,6.35
2022-08-23T00:05:15.536Z,5.60
2022-08-23T00:07:46.653Z,6.82
2022-08-23T00:10:20.958Z,6.53
2022-08-23T00:12:51.617Z,6.32
2022-08-23T00:15:23.469Z,5.57
2022-08-23T00:17:53.701Z,6.40
2022-08-23T00:20:23.997Z,5.75
2022-08-23T00:22:54.125Z,5.80
2022-08-23T00:25:26.971Z,6.10
2022-08-23T00:27:57.315Z,5.43
2022-08-23T00:30:28.899Z,4.47
2022-08-23T00:32:59.289Z,5.05
2022-08-23T00:35:29.968Z,4.05
2022-08-23T00:38:32.438Z,4.15
2022-08-23T00:40:56.965Z,4.20
2022-08-23T00:43:44.798Z,4.18
2022-08-23T00:46:38.320Z,3.63
2022-08-23T00:49:13.539Z,4.05
2022-08-23T00:51:53.194Z,3.70
2022-08-23T00:54:25.163Z,3.63
2022-08-23T00:56:58.835Z,4.05
2022-08-23T00:59:29.360Z,4.15
2022-08-23T01:04:31.845Z,4.10
2022-08-23T01:07:06.263Z,4.65
2022-08-23T01:09:36.558Z,5.78
2022-08-23T01:12:15.307Z,4.47
2022-08-23T01:14:50.830Z,4.90
2022-08-23T01:17:27.046Z,5.50
2022-08-23T01:20:01.582Z,5.07
2022-08-23T01:22:36.791Z,5.38
2022-08-23T01:25:13.656Z,4.95
2022-08-23T01:27:44.716Z,5.07
2022-08-23T01:30:17.677Z,5.07
2022-08-23T01:32:51.426Z,4.85
2022-08-23T01:37:56.553Z,4.68
2022-08-23T01:40:30.036Z,4.38
2022-08-23T01:43:00.418Z,5.18
2022-08-23T01:45:31.121Z,4.43
2022-08-23T01:48:01.773Z,3.40
2022-08-23T01:50:32.601Z,4.03
2022-08-23T01:53:03.442Z,4.25
2022-08-23T01:55:37.297Z,3.90
2022-08-23T01:58:08.917Z,3.38
2022-08-23T02:00:42.344Z,3.85
2022-08-23T02:03:13.730Z,3.88
2022-08-23T02:05:45.930Z,3.83
2022-08-23T02:08:29.265Z,4.35
2022-08-23T02:11:02.353Z,4.18
2022-08-23T02:13:32.490Z,3.75
2022-08-23T02:16:02.783Z,4.10
2022-08-23T02:18:34.042Z,4.10
2022-08-23T02:21:04.575Z,4.28
2022-08-23T02:26:08.037Z,4.28
2022-08-23T02:28:38.391Z,4.38
2022-08-23T02:31:09.014Z,3.92
2022-08-23T02:33:41.741Z,4.40
2022-08-23T02:36:13.519Z,3.42
2022-08-23T02:38:44.531Z,4.20
2022-08-23T02:41:17.745Z,4.65
2022-08-23T02:43:48.650Z,3.83
2022-08-23T02:46:18.961Z,4.10
2022-08-23T02:48:49.120Z,4.25
2022-08-23T02:53:51.049Z,3.97
2022-08-23T02:56:24.000Z,3.95
2022-08-23T02:58:54.944Z,4.00
2022-08-23T03:01:28.802Z,4.15
2022-08-23T03:03:59.270Z,4.68
2022-08-23T03:06:30.695Z,4.25
2022-08-23T03:09:01.164Z,4.35
2022-08-23T03:11:34.222Z,4.10
2022-08-23T03:14:04.429Z,4.50
2022-08-23T03:16:34.702Z,4.13
2022-08-23T03:19:05.120Z,4.10
2022-08-23T03:21:35.582Z,4.32
2022-08-23T03:24:10.186Z,4.57
2022-08-23T03:26:46.030Z,3.90
2022-08-23T03:29:16.725Z,4.35
2022-08-23T03:34:16.971Z,4.22
2022-08-23T03:36:47.568Z,3.90
2022-08-23T03:41:50.832Z,4.10
2022-08-23T03:44:21.018Z,4.40
2022-08-23T03:46:51.538Z,4.35
2022-08-23T03:49:22.268Z,4.50
2022-08-23T03:51:52.531Z,4.75
2022-08-23T03:54:23.397Z,4.35
2022-08-23T03:57:00.659Z,4.38
2022-08-23T03:59:31.919Z,4.93
2022-08-23T04:02:02.230Z,4.63
2022-08-23T04:04:32.462Z,4.47
2022-08-23T04:07:03.182Z,5.38
2022-08-23T04:09:33.433Z,5.70
2022-08-23T04:12:17.593Z,5.70
2022-08-23T04:14:48.391Z,4.90
2022-08-23T04:17:21.105Z,5.47
2022-08-23T04:19:51.204Z,4.80
2022-08-23T04:22:22.540Z,4.35
2022-08-23T04:24:53.067Z,5.28
2022-08-23T04:27:25.764Z,4.90
2022-08-23T04:29:55.796Z,11.98
2022-08-23T04:32:28.514Z,7.20
2022-08-23T04:34:58.732Z,7.70
2022-08-23T04:37:28.819Z,10.38
2022-08-23T04:40:11.289Z,23.13
2022-08-23T04:42:44.316Z,9.38
2022-08-23T04:45:14.312Z,6.65
2022-08-23T04:47:45.532Z,5.45
2022-08-23T04:50:15.495Z,5.45
2022-08-23T04:52:45.498Z,5.47
2022-08-23T04:55:15.949Z,5.80
2022-08-23T04:57:48.568Z,5.43
2022-08-23T05:00:19.768Z,5.15
2022-08-23T05:02:50.174Z,5.80
2022-08-23T05:05:20.811Z,7.13
2022-08-23T05:07:51.534Z,7.57
2022-08-23T05:10:22.200Z,6.78
2022-08-23T05:12:55.272Z,7.18
2022-08-23T05:15:25.246Z,6.30
2022-08-23T05:17:55.773Z,7.47
2022-08-23T05:22:56.196Z,7.28
2022-08-23T05:25:46.195Z,6.57
2022-08-23T05:28:19.971Z,6.93
2022-08-23T05:30:58.425Z,6.65
2022-08-23T05:33:31.393Z,7.63
2022-08-23T05:36:01.984Z,7.90
2022-08-23T05:41:02.205Z,6.97
2022-08-23T05:43:38.734Z,7.35
2022-08-23T05:46:12.686Z,6.43
2022-08-23T05:48:47.024Z,6.43
2022-08-23T05:51:19.504Z,7.15
2022-08-23T05:53:50.525Z,7.15
2022-08-23T05:56:22.608Z,6.75
2022-08-23T05:59:00.043Z,8.73
2022-08-23T06:01:32.292Z,12.00
2022-08-23T06:04:03.136Z,8.98
2022-08-23T06:06:35.074Z,9.15
2022-08-23T06:09:10.146Z,8.20
2022-08-23T06:11:40.394Z,8.32
2022-08-23T06:14:13.366Z,7.88
2022-08-23T06:16:47.703Z,7.93
2022-08-23T06:19:18.293Z,9.93
2022-08-23T06:21:48.872Z,10.63
2022-08-23T06:24:18.947Z,7.95
2022-08-23T06:26:50.530Z,7.82
2022-08-23T06:31:56.024Z,8.60
2022-08-23T06:34:30.033Z,9.27
2022-08-23T06:37:02.051Z,9.70
2022-08-23T06:39:37.332Z,7.13
2022-08-23T06:42:36.533Z,7.40
2022-08-23T06:45:03.338Z,6.45
2022-08-23T06:47:34.051Z,6.85
2022-08-23T06:50:04.223Z,6.45
2022-08-23T06:52:34.450Z,6.68
2022-08-23T06:55:05.125Z,7.22
2022-08-23T06:57:35.274Z,6.50
2022-08-23T07:00:10.716Z,6.53
2022-08-23T07:02:40.893Z,7.78
2022-08-23T07:05:11.638Z,6.53
2022-08-23T07:07:44.189Z,6.90
2022-08-23T07:10:15.655Z,5.93
2022-08-23T07:12:45.820Z,6.10
2022-08-23T07:15:18.567Z,6.18
2022-08-23T07:17:48.685Z,5.07
2022-08-23T07:20:18.893Z,6.85
2022-08-23T07:22:49.458Z,5.03
2022-08-23T07:25:19.737Z,4.13
2022-08-23T07:30:22.450Z,3.55
2022-08-23T07:32:52.921Z,4.22
2022-08-23T07:35:23.271Z,3.97
2022-08-23T07:40:23.463Z,5.97
2022-08-23T07:42:59.733Z,4.97
2022-08-23T07:45:34.247Z,5.07
2022-08-23T07:48:04.970Z,7.32
2022-08-23T07:50:35.158Z,5.53
2022-08-23T07:53:05.359Z,6.57
2022-08-23T07:55:35.375Z,5.57
2022-08-23T07:58:05.559Z,5.13
2022-08-23T08:00:38.304Z,4.10
2022-08-23T08:03:09.412Z,3.00
2022-08-23T08:05:39.621Z,2.28
2022-08-23T08:10:41.800Z,2.53
2022-08-23T08:13:12.086Z,2.10
2022-08-23T08:15:46.283Z,2.95
2022-08-23T08:18:17.311Z,3.20
2022-08-23T08:20:47.833Z,3.42
2022-08-23T08:23:18.034Z,3.25
2022-08-23T08:25:48.009Z,2.83
2022-08-23T08:30:50.338Z,2.92
2022-08-23T08:33:20.307Z,1.85
2022-08-23T08:35:57.780Z,2.33
2022-08-23T08:38:32.913Z,1.80
2022-08-23T08:41:15.263Z,1.60
2022-08-23T08:43:58.132Z,1.80
2022-08-23T08:46:42.674Z,1.90
2022-08-23T08:49:17.705Z,2.08
2022-08-23T08:51:54.989Z,1.80
2022-08-23T08:54:29.472Z,1.50
2022-08-23T08:57:02.349Z,1.98
2022-08-23T08:59:52.949Z,2.00
2022-08-23T09:02:33.680Z,1.77
2022-08-23T09:05:06.644Z,1.80
2022-08-23T09:07:47.480Z,1.33
2022-08-23T09:10:41.212Z,1.00
2022-08-23T09:13:28.443Z,1.63
2022-08-23T09:16:08.420Z,1.48
2022-08-23T09:18:41.375Z,1.55
2022-08-23T09:21:13.662Z,1.02
2022-08-23T09:23:46.127Z,0.98
2022-08-23T09:26:25.100Z,1.35
2022-08-23T09:28:58.770Z,1.13
2022-08-23T09:31:42.861Z,1.20
2022-08-23T09:34:21.597Z,1.30
2022-08-23T09:36:52.417Z,0.93
2022-08-23T09:39:32.007Z,1.02
2022-08-23T09:42:02.685Z,0.85
2022-08-23T09:44:40.002Z,1.20
2022-08-23T09:47:15.429Z,1.40
2022-08-23T09:49:51.533Z,1.08
2022-08-23T09:52:27.165Z,0.93
2022-08-23T09:55:00.362Z,1.13
2022-08-23T09:57:33.341Z,0.80
2022-08-23T10:00:05.433Z,0.80
2022-08-23T10:02:37.508Z,0.82
2022-08-23T10:05:21.753Z,1.50
2022-08-23T10:08:00.133Z,0.82
2022-08-23T10:10:35.219Z,1.00
2022-08-23T10:13:06.376Z,1.38
2022-08-23T10:15:52.345Z,1.33
2022-08-23T10:18:33.940Z,1.35
2022-08-23T10:21:10.305Z,1.38
2022-08-23T10:23:49.123Z,1.00
2022-08-23T10:26:25.217Z,1.00
2022-08-23T10:29:16.346Z,1.65
2022-08-23T10:31:57.979Z,0.95
2022-08-23T10:34:48.472Z,0.90
2022-08-23T10:37:42.852Z,0.75
2022-08-23T10:40:21.934Z,0.95
2022-08-23T10:43:00.356Z,1.10
2022-08-23T10:45:34.055Z,1.13
2022-08-23T10:48:21.422Z,1.25
2022-08-23T10:50:55.809Z,1.25
2022-08-23T10:53:37.564Z,0.98
2022-08-23T10:56:13.496Z,0.95
2022-08-23T10:58:49.096Z,0.80
2022-08-23T11:01:20.667Z,0.75
2022-08-23T11:03:59.954Z,1.75
2022-08-23T11:06:55.232Z,1.10
2022-08-23T11:12:35.655Z,1.67
2022-08-23T11:15:22.469Z,1.30
2022-08-23T11:18:14.758Z,1.15
2022-08-23T11:21:11.535Z,1.52
2022-08-23T11:23:52.085Z,1.25
2022-08-23T11:26:51.940Z,1.00
2022-08-23T11:29:34.770Z,0.95
2022-08-23T11:32:29.353Z,0.80
2022-08-23T14:19:14.894Z,0.70
2022-08-23T14:21:28.232Z,1.10
2022-08-23T14:23:58.466Z,0.90
2022-08-23T14:26:29.138Z,0.90
2022-08-23T14:28:59.711Z,0.75
2022-08-23T14:31:29.865Z,0.90
2022-08-23T14:34:02.849Z,0.65
2022-08-23T14:36:33.279Z,0.90
2022-08-23T14:39:03.547Z,0.82
2022-08-23T14:41:34.767Z,0.77
2022-08-23T14:44:05.220Z,0.73
2022-08-23T14:46:35.353Z,0.63
2022-08-23T14:49:08.091Z,0.93
2022-08-23T14:51:43.333Z,0.77
2022-08-23T14:54:17.546Z,0.70
2022-08-23T14:56:47.976Z,0.70
2022-08-23T14:59:18.618Z,1.30
2022-08-23T15:01:50.375Z,0.90
2022-08-23T15:04:25.217Z,0.88
2022-08-23T15:07:19.158Z,1.08
2022-08-23T15:09:50.035Z,0.80
2022-08-23T15:15:16.020Z,0.80
2022-08-23T15:17:52.422Z,0.85
2022-08-23T15:22:57.817Z,0.50
2022-08-23T15:25:31.918Z,1.15
2022-08-23T15:28:02.143Z,1.85
2022-08-23T15:30:33.353Z,0.93
2022-08-23T15:33:04.193Z,0.93
2022-08-23T15:35:45.363Z,0.88
2022-08-23T15:38:18.220Z,0.90
2022-08-23T15:40:49.021Z,0.98
2022-08-23T15:43:19.221Z,1.25
2022-08-23T15:45:49.740Z,1.23
2022-08-23T15:48:24.398Z,1.23
2022-08-23T15:50:58.283Z,1.17
2022-08-23T15:53:28.450Z,1.70
2022-08-23T15:56:02.359Z,1.73
2022-08-23T15:58:35.676Z,1.42
2022-08-23T16:01:09.987Z,0.70
2022-08-23T16:03:42.505Z,1.38
2022-08-23T16:06:16.829Z,1.02
2022-08-23T16:08:52.493Z,0.50
2022-08-23T16:11:24.326Z,0.57
2022-08-23T16:13:55.387Z,2.17
2022-08-23T16:16:29.288Z,1.48
2022-08-23T16:19:00.845Z,1.70
2022-08-23T16:21:34.856Z,0.90
2022-08-23T16:24:05.469Z,1.05
2022-08-23T16:26:39.081Z,0.65
2022-08-23T16:29:14.589Z,0.80
2022-08-23T16:31:45.238Z,1.00
2022-08-23T16:34:18.317Z,1.25
2022-08-23T16:36:56.766Z,0.90
2022-08-23T16:39:27.933Z,1.10
2022-08-23T16:42:00.133Z,1.00
2022-08-23T16:44:30.357Z,0.98
2022-08-23T16:47:01.301Z,0.85
2022-08-23T16:49:33.701Z,2.00
2022-08-23T16:52:07.228Z,1.67
2022-08-23T16:54:37.332Z,1.02
2022-08-23T16:57:10.091Z,0.93
2022-08-23T16:59:40.737Z,1.05
2022-08-23T17:02:12.377Z,0.75
2022-08-23T17:04:42.630Z,1.00
2022-08-23T17:07:15.473Z,1.05
2022-08-23T17:09:46.844Z,0.98
2022-08-23T17:12:17.414Z,0.95
2022-08-23T17:14:49.308Z,0.93
2022-08-23T17:17:20.008Z,1.13
2022-08-23T17:19:50.369Z,0.95
2022-08-23T17:22:23.333Z,1.27
2022-08-23T17:24:54.125Z,1.52
2022-08-23T17:27:24.901Z,10.00
2022-08-23T17:29:55.171Z,3.80
2022-08-23T17:32:25.640Z,2.22
2022-08-23T17:34:55.884Z,1.20
2022-08-23T17:37:29.135Z,1.52
2022-08-23T17:39:59.490Z,0.82
2022-08-23T17:42:31.238Z,3.45
2022-08-23T17:45:01.491Z,1.48
2022-08-23T17:47:32.637Z,1.45
2022-08-23T17:50:03.545Z,1.45
2022-08-23T17:52:36.887Z,11.52
2022-08-23T17:55:07.869Z,5.15
2022-08-23T17:57:38.143Z,2.22
2022-08-23T18:00:10.358Z,2.80
2022-08-23T18:02:40.987Z,1.70
2022-08-23T18:05:12.059Z,1.40
2022-08-23T18:07:45.232Z,1.92
2022-08-23T18:10:16.409Z,1.20
2022-08-23T18:12:46.874Z,1.25
2022-08-23T18:15:18.628Z,1.70
2022-08-23T18:17:48.949Z,1.80
2022-08-23T18:20:21.539Z,1.70
2022-08-23T18:22:54.645Z,2.33
2022-08-23T18:25:24.946Z,2.03
2022-08-23T18:28:08.717Z,1.85
2022-08-23T18:30:41.599Z,1.33
2022-08-23T18:33:12.922Z,1.48
2022-08-23T18:35:44.007Z,1.45
2022-08-23T18:38:18.858Z,1.63
2022-08-23T18:40:50.933Z,1.55
2022-08-23T18:43:24.376Z,1.70
2022-08-23T18:45:58.038Z,1.65
2022-08-23T18:48:28.346Z,1.65
2022-08-23T18:50:58.623Z,1.73
2022-08-23T18:53:32.042Z,1.73
2022-08-23T18:56:02.311Z,1.52
2022-08-23T18:58:32.511Z,1.30
2022-08-23T19:03:36.945Z,1.02
2022-08-23T19:06:07.143Z,1.33
2022-08-23T19:08:39.808Z,1.27
2022-08-23T19:11:09.848Z,1.70
2022-08-23T19:13:40.262Z,1.63
2022-08-23T19:16:13.998Z,1.23
2022-08-23T19:18:46.353Z,1.13
2022-08-23T19:21:19.263Z,1.17
2022-08-23T19:23:52.936Z,1.20
2022-08-23T19:26:25.943Z,1.58
2022-08-23T19:28:56.383Z,1.13
2022-08-23T19:31:33.053Z,1.38
2022-08-23T19:34:04.785Z,1.70
2022-08-23T19:39:27.572Z,1.17
2022-08-23T19:41:57.683Z,4.93
2022-08-23T19:44:28.404Z,12.10
2022-08-23T19:46:58.927Z,1.08
2022-08-23T19:49:29.216Z,1.23
2022-08-23T19:51:59.684Z,1.17
2022-08-23T19:54:32.460Z,1.02
2022-08-23T19:57:04.261Z,0.82
2022-08-23T19:59:36.379Z,1.10
2022-08-23T20:02:07.003Z,0.88
2022-08-23T20:04:37.571Z,1.05
2022-08-23T20:07:08.524Z,1.02
2022-08-23T20:09:41.576Z,0.90
2022-08-23T20:12:11.968Z,1.40
2022-08-23T20:14:42.497Z,0.93
2022-08-23T20:17:12.847Z,0.90
2022-08-23T20:19:44.062Z,1.15
2022-08-23T20:22:26.808Z,1.52
2022-08-23T20:24:59.828Z,1.30
2022-08-23T20:27:31.281Z,1.42
2022-08-23T20:30:02.629Z,1.15
2022-08-23T20:32:33.145Z,1.55
2022-08-23T20:35:05.014Z,1.38
2022-08-23T20:37:35.897Z,1.00
2022-08-23T20:40:10.728Z,1.52
2022-08-23T20:42:41.716Z,1.15
2022-08-23T20:45:13.099Z,1.20
2022-08-23T20:47:43.440Z,1.27
2022-08-23T20:52:44.110Z,27.35
2022-08-23T20:55:20.180Z,2.00
2022-08-23T20:57:50.495Z,0.82
2022-08-23T21:00:21.088Z,1.13
2022-08-23T21:02:51.338Z,0.75
2022-08-23T21:05:21.653Z,0.82
2022-08-23T21:12:54.663Z,1.30
2022-08-23T21:15:24.895Z,1.02
2022-08-23T21:17:55.295Z,0.75
2022-08-23T21:20:25.544Z,1.00
2022-08-23T21:22:55.719Z,0.93
2022-08-23T21:25:28.552Z,0.85
2022-08-23T21:28:02.180Z,0.60
2022-08-23T21:30:34.663Z,0.80
2022-08-23T21:33:07.933Z,1.00
2022-08-23T21:35:38.623Z,1.05
2022-08-23T21:38:09.014Z,1.08
2022-08-23T21:40:42.162Z,0.50
2022-08-23T21:43:12.361Z,1.25
2022-08-23T21:45:43.229Z,0.90
2022-08-23T21:48:13.506Z,0.82
2022-08-23T21:50:43.689Z,1.20
2022-08-23T21:53:13.860Z,0.90
2022-08-23T21:55:47.052Z,1.13
2022-08-23T21:58:17.219Z,1.20
2022-08-23T22:00:47.609Z,1.65
2022-08-23T22:05:48.867Z,1.33
2022-08-23T22:08:19.293Z,1.00
2022-08-23T22:13:29.429Z,1.35
2022-08-23T22:16:01.142Z,0.80
2022-08-23T22:18:31.439Z,1.25
2022-08-23T22:21:02.133Z,1.13
2022-08-23T22:23:33.550Z,1.17
2022-08-23T22:26:09.323Z,1.17
2022-08-23T22:28:39.943Z,1.23
2022-08-23T22:31:13.158Z,0.82
2022-08-23T22:33:43.662Z,1.45
2022-08-23T22:36:16.699Z,1.48
2022-08-23T22:38:47.690Z,1.55
2022-08-23T22:41:25.688Z,1.10
2022-08-23T22:43:56.609Z,1.10
2022-08-23T22:46:27.450Z,1.63
2022-08-23T22:48:57.949Z,1.10
2022-08-23T22:51:30.824Z,0.98
2022-08-23T22:54:03.377Z,1.00
2022-08-23T22:56:40.310Z,1.42
2022-08-23T23:01:44.512Z,1.10
2022-08-23T23:04:16.415Z,1.42
2022-08-23T23:06:47.660Z,1.10
2022-08-23T23:09:18.703Z,1.30
2022-08-23T23:11:52.304Z,0.75
2022-08-23T23:14:24.464Z,0.85
2022-08-23T23:16:55.212Z,0.90
2022-08-23T23:19:40.200Z,0.80
2022-08-23T23:22:11.525Z,1.35
2022-08-23T23:24:43.012Z,0.75
2022-08-23T23:27:15.915Z,1.25
2022-08-23T23:29:46.196Z,1.13
2022-08-23T23:32:18.479Z,1.00
2022-08-23T23:34:48.625Z,1.33
2022-08-23T23:37:18.876Z,1.02
2022-08-23T23:39:49.127Z,1.00
2022-08-23T23:42:21.960Z,1.00
2022-08-23T23:44:52.278Z,1.05
2022-08-23T23:47:22.306Z,1.02
2022-08-23T23:49:53.593Z,1.25
2022-08-23T23:52:23.722Z,1.38
2022-08-23T23:54:53.817Z,1.45
2022-08-23T23:57:26.670Z,1.60
2022-08-23T23:59:57.001Z,0.70
